MA97 weather

Waters Airport
Sutton, Massachusetts, United States

Public forecast

Using degrees Fahrenheit for public forecast. Weather courtesy of forecast.io.

Closest aviation weather report (METAR) to Waters Airport

Closest report is Worcester Regional Airport, 10.5 nm (19.4 km) NW. Retrieved 2020/08/07 10:54 UTC (41 minutes ago):

KORH 071054Z 01004KT 10SM CLR 19/10 A3019 RMK AO2 SLP217 T01940100

Closest aviation forecast (TAF) to Waters Airport

Closest forecast is Worcester Regional Airport, 10.5 nm (19.4 km) NW. Retrieved 2020/08/07 06:36 UTC (5 hours ago):

TAF KORH 070533Z 0706/0806 36004KT P6SM BKN250 FM071100 03003KT P6SM OVC100 FM071600 09004KT P6SM OVC100 FM072000 11005KT P6SM OVC040 FM080300 10003KT P6SM VCSH OVC030